sensor_id;sensor_type;location;lat;lon;timestamp;temperature;humidity
77056;SHT30;67471;44.918;8.614;2024-03-22T00:01:47;13.90;70.11
77056;SHT30;67471;44.918;8.614;2024-03-22T00:04:52;13.99;70.04
77056;SHT30;67471;44.918;8.614;2024-03-22T00:07:56;14.03;69.95
77056;SHT30;67471;44.918;8.614;2024-03-22T00:11:00;14.02;69.91
77056;SHT30;67471;44.918;8.614;2024-03-22T00:14:03;14.05;69.97
77056;SHT30;67471;44.918;8.614;2024-03-22T00:17:07;14.00;70.23
77056;SHT30;67471;44.918;8.614;2024-03-22T00:20:11;14.09;70.51
77056;SHT30;67471;44.918;8.614;2024-03-22T00:23:15;14.06;70.86
77056;SHT30;67471;44.918;8.614;2024-03-22T00:26:18;14.03;70.82
77056;SHT30;67471;44.918;8.614;2024-03-22T00:29:22;13.87;71.14
77056;SHT30;67471;44.918;8.614;2024-03-22T00:32:26;13.76;71.56
77056;SHT30;67471;44.918;8.614;2024-03-22T00:35:30;13.73;71.68
77056;SHT30;67471;44.918;8.614;2024-03-22T00:38:34;13.58;72.12
77056;SHT30;67471;44.918;8.614;2024-03-22T00:41:38;13.66;71.61
77056;SHT30;67471;44.918;8.614;2024-03-22T00:44:42;13.48;71.76
77056;SHT30;67471;44.918;8.614;2024-03-22T00:47:46;13.45;72.16
77056;SHT30;67471;44.918;8.614;2024-03-22T00:50:50;13.22;72.86
77056;SHT30;67471;44.918;8.614;2024-03-22T00:53:54;13.01;73.41
77056;SHT30;67471;44.918;8.614;2024-03-22T00:56:58;13.06;73.16
77056;SHT30;67471;44.918;8.614;2024-03-22T01:00:02;12.93;73.25
77056;SHT30;67471;44.918;8.614;2024-03-22T01:03:06;13.00;73.23
77056;SHT30;67471;44.918;8.614;2024-03-22T01:06:10;12.79;73.80
77056;SHT30;67471;44.918;8.614;2024-03-22T01:09:14;11.87;77.50
77056;SHT30;67471;44.918;8.614;2024-03-22T01:12:17;11.84;77.94
77056;SHT30;67471;44.918;8.614;2024-03-22T01:15:21;12.28;76.51
77056;SHT30;67471;44.918;8.614;2024-03-22T01:18:25;11.82;78.04
77056;SHT30;67471;44.918;8.614;2024-03-22T01:21:29;11.75;77.58
77056;SHT30;67471;44.918;8.614;2024-03-22T01:24:33;11.87;76.81
77056;SHT30;67471;44.918;8.614;2024-03-22T01:27:37;11.47;78.12
77056;SHT30;67471;44.918;8.614;2024-03-22T01:30:40;11.46;78.43
77056;SHT30;67471;44.918;8.614;2024-03-22T01:33:45;11.70;77.17
77056;SHT30;67471;44.918;8.614;2024-03-22T01:36:49;11.84;76.89
77056;SHT30;67471;44.918;8.614;2024-03-22T01:39:53;11.95;76.14
77056;SHT30;67471;44.918;8.614;2024-03-22T01:42:57;12.05;76.06
77056;SHT30;67471;44.918;8.614;2024-03-22T01:46:01;12.24;75.56
77056;SHT30;67471;44.918;8.614;2024-03-22T01:49:04;12.31;75.35
77056;SHT30;67471;44.918;8.614;2024-03-22T01:52:08;12.50;75.08
77056;SHT30;67471;44.918;8.614;2024-03-22T01:55:13;12.64;74.22
77056;SHT30;67471;44.918;8.614;2024-03-22T01:58:17;12.72;74.53
77056;SHT30;67471;44.918;8.614;2024-03-22T02:01:21;12.87;73.86
77056;SHT30;67471;44.918;8.614;2024-03-22T02:04:25;12.75;74.16
77056;SHT30;67471;44.918;8.614;2024-03-22T02:07:30;12.76;74.17
77056;SHT30;67471;44.918;8.614;2024-03-22T02:10:33;12.77;74.15
77056;SHT30;67471;44.918;8.614;2024-03-22T02:13:37;12.96;73.92
77056;SHT30;67471;44.918;8.614;2024-03-22T02:16:41;12.31;75.59
77056;SHT30;67471;44.918;8.614;2024-03-22T02:19:44;12.59;74.30
77056;SHT30;67471;44.918;8.614;2024-03-22T02:22:49;12.29;75.06
77056;SHT30;67471;44.918;8.614;2024-03-22T02:25:52;12.17;75.91
77056;SHT30;67471;44.918;8.614;2024-03-22T02:28:56;12.36;75.10
77056;SHT30;67471;44.918;8.614;2024-03-22T02:32:00;12.46;74.90
77056;SHT30;67471;44.918;8.614;2024-03-22T02:35:04;12.36;75.46
77056;SHT30;67471;44.918;8.614;2024-03-22T02:38:08;12.10;76.23
77056;SHT30;67471;44.918;8.614;2024-03-22T02:41:12;12.31;75.09
77056;SHT30;67471;44.918;8.614;2024-03-22T02:44:16;11.88;76.04
77056;SHT30;67471;44.918;8.614;2024-03-22T02:47:20;12.06;75.90
77056;SHT30;67471;44.918;8.614;2024-03-22T02:50:23;12.14;75.41
77056;SHT30;67471;44.918;8.614;2024-03-22T02:53:27;12.15;75.19
77056;SHT30;67471;44.918;8.614;2024-03-22T02:56:31;12.17;75.04
77056;SHT30;67471;44.918;8.614;2024-03-22T02:59:35;12.21;75.09
77056;SHT30;67471;44.918;8.614;2024-03-22T03:02:38;12.11;75.52
77056;SHT30;67471;44.918;8.614;2024-03-22T03:05:42;12.18;74.98
77056;SHT30;67471;44.918;8.614;2024-03-22T03:08:47;11.27;78.40
77056;SHT30;67471;44.918;8.614;2024-03-22T03:11:51;11.60;77.54
77056;SHT30;67471;44.918;8.614;2024-03-22T03:14:55;11.12;78.93
77056;SHT30;67471;44.918;8.614;2024-03-22T03:17:58;11.27;78.47
77056;SHT30;67471;44.918;8.614;2024-03-22T03:21:02;11.39;78.21
77056;SHT30;67471;44.918;8.614;2024-03-22T03:24:06;11.46;77.79
77056;SHT30;67471;44.918;8.614;2024-03-22T03:27:12;11.23;78.62
77056;SHT30;67471;44.918;8.614;2024-03-22T03:30:16;10.93;79.76
77056;SHT30;67471;44.918;8.614;2024-03-22T03:33:20;11.18;78.94
77056;SHT30;67471;44.918;8.614;2024-03-22T03:36:24;11.23;78.75
77056;SHT30;67471;44.918;8.614;2024-03-22T03:39:28;10.89;79.57
77056;SHT30;67471;44.918;8.614;2024-03-22T03:42:33;11.02;79.44
77056;SHT30;67471;44.918;8.614;2024-03-22T03:45:37;10.82;80.28
77056;SHT30;67471;44.918;8.614;2024-03-22T03:48:40;10.57;81.32
77056;SHT30;67471;44.918;8.614;2024-03-22T03:51:44;10.96;79.95
77056;SHT30;67471;44.918;8.614;2024-03-22T03:54:48;11.23;78.84
77056;SHT30;67471;44.918;8.614;2024-03-22T03:57:52;11.40;77.88
77056;SHT30;67471;44.918;8.614;2024-03-22T04:00:56;11.33;77.69
77056;SHT30;67471;44.918;8.614;2024-03-22T04:03:59;11.57;77.13
77056;SHT30;67471;44.918;8.614;2024-03-22T04:07:03;11.77;76.49
77056;SHT30;67471;44.918;8.614;2024-03-22T04:10:07;11.81;76.70
77056;SHT30;67471;44.918;8.614;2024-03-22T04:13:11;11.85;76.63
77056;SHT30;67471;44.918;8.614;2024-03-22T04:16:15;11.71;76.34
77056;SHT30;67471;44.918;8.614;2024-03-22T04:19:18;11.73;76.46
77056;SHT30;67471;44.918;8.614;2024-03-22T04:22:22;11.64;76.15
77056;SHT30;67471;44.918;8.614;2024-03-22T04:25:26;11.70;76.21
77056;SHT30;67471;44.918;8.614;2024-03-22T04:28:30;11.75;75.78
77056;SHT30;67471;44.918;8.614;2024-03-22T04:31:33;11.67;76.01
77056;SHT30;67471;44.918;8.614;2024-03-22T04:34:41;11.51;76.69
77056;SHT30;67471;44.918;8.614;2024-03-22T04:37:45;11.63;76.20
77056;SHT30;67471;44.918;8.614;2024-03-22T04:40:49;11.53;75.87
77056;SHT30;67471;44.918;8.614;2024-03-22T04:43:52;11.40;76.48
77056;SHT30;67471;44.918;8.614;2024-03-22T04:46:56;11.43;76.13
77056;SHT30;67471;44.918;8.614;2024-03-22T04:50:00;11.24;76.70
77056;SHT30;67471;44.918;8.614;2024-03-22T04:53:04;11.18;77.18
77056;SHT30;67471;44.918;8.614;2024-03-22T04:56:08;11.23;76.87
77056;SHT30;67471;44.918;8.614;2024-03-22T04:59:13;11.22;76.98
77056;SHT30;67471;44.918;8.614;2024-03-22T05:02:16;11.12;77.49
77056;SHT30;67471;44.918;8.614;2024-03-22T05:05:21;11.01;77.36
77056;SHT30;67471;44.918;8.614;2024-03-22T05:08:25;11.05;77.09
77056;SHT30;67471;44.918;8.614;2024-03-22T05:11:29;11.08;77.04
77056;SHT30;67471;44.918;8.614;2024-03-22T05:14:34;11.01;77.27
77056;SHT30;67471;44.918;8.614;2024-03-22T05:17:38;10.99;77.25
77056;SHT30;67471;44.918;8.614;2024-03-22T05:20:42;11.01;77.15
77056;SHT30;67471;44.918;8.614;2024-03-22T05:23:46;11.03;77.43
77056;SHT30;67471;44.918;8.614;2024-03-22T05:26:50;11.06;77.06
77056;SHT30;67471;44.918;8.614;2024-03-22T05:29:54;11.12;76.72
77056;SHT30;67471;44.918;8.614;2024-03-22T05:32:58;11.15;76.73
77056;SHT30;67471;44.918;8.614;2024-03-22T05:36:02;11.19;76.40
77056;SHT30;67471;44.918;8.614;2024-03-22T05:39:06;11.22;76.44
77056;SHT30;67471;44.918;8.614;2024-03-22T05:42:10;11.24;76.07
77056;SHT30;67471;44.918;8.614;2024-03-22T05:45:13;11.16;76.40
77056;SHT30;67471;44.918;8.614;2024-03-22T05:48:17;11.18;76.19
77056;SHT30;67471;44.918;8.614;2024-03-22T05:51:21;11.22;76.43
77056;SHT30;67471;44.918;8.614;2024-03-22T05:54:25;11.27;76.04
77056;SHT30;67471;44.918;8.614;2024-03-22T05:57:29;11.39;75.70
77056;SHT30;67471;44.918;8.614;2024-03-22T06:00:33;11.46;75.53
77056;SHT30;67471;44.918;8.614;2024-03-22T06:03:37;11.60;75.10
77056;SHT30;67471;44.918;8.614;2024-03-22T06:06:41;11.61;74.82
77056;SHT30;67471;44.918;8.614;2024-03-22T06:09:45;11.73;74.80
77056;SHT30;67471;44.918;8.614;2024-03-22T06:12:52;11.56;75.50
77056;SHT30;67471;44.918;8.614;2024-03-22T06:15:56;11.95;74.43
77056;SHT30;67471;44.918;8.614;2024-03-22T06:18:59;11.67;75.55
77056;SHT30;67471;44.918;8.614;2024-03-22T06:22:04;11.50;76.64
77056;SHT30;67471;44.918;8.614;2024-03-22T06:25:07;11.36;77.88
77056;SHT30;67471;44.918;8.614;2024-03-22T06:28:11;12.19;74.54
77056;SHT30;67471;44.918;8.614;2024-03-22T06:31:15;13.18;72.05
77056;SHT30;67471;44.918;8.614;2024-03-22T06:34:19;13.76;69.23
77056;SHT30;67471;44.918;8.614;2024-03-22T06:37:23;14.44;67.86
77056;SHT30;67471;44.918;8.614;2024-03-22T06:40:27;14.61;68.12
77056;SHT30;67471;44.918;8.614;2024-03-22T06:43:31;13.52;72.21
77056;SHT30;67471;44.918;8.614;2024-03-22T06:46:35;13.30;74.00
77056;SHT30;67471;44.918;8.614;2024-03-22T06:49:39;12.90;75.88
77056;SHT30;67471;44.918;8.614;2024-03-22T06:52:42;12.59;77.36
77056;SHT30;67471;44.918;8.614;2024-03-22T06:55:46;12.31;79.92
77056;SHT30;67471;44.918;8.614;2024-03-22T06:58:50;12.38;79.98
77056;SHT30;67471;44.918;8.614;2024-03-22T07:01:54;12.56;79.70
77056;SHT30;67471;44.918;8.614;2024-03-22T07:04:57;12.45;80.45
77056;SHT30;67471;44.918;8.614;2024-03-22T07:08:01;12.69;79.62
77056;SHT30;67471;44.918;8.614;2024-03-22T07:11:06;12.63;79.72
77056;SHT30;67471;44.918;8.614;2024-03-22T07:14:10;12.69;79.78
77056;SHT30;67471;44.918;8.614;2024-03-22T07:17:13;12.80;79.65
77056;SHT30;67471;44.918;8.614;2024-03-22T07:20:18;12.86;79.70
77056;SHT30;67471;44.918;8.614;2024-03-22T07:23:22;12.80;80.07
77056;SHT30;67471;44.918;8.614;2024-03-22T07:26:26;12.81;80.42
77056;SHT30;67471;44.918;8.614;2024-03-22T07:29:30;12.86;80.67
77056;SHT30;67471;44.918;8.614;2024-03-22T07:32:34;12.90;80.70
77056;SHT30;67471;44.918;8.614;2024-03-22T07:35:37;12.86;80.67
77056;SHT30;67471;44.918;8.614;2024-03-22T07:38:41;12.94;80.74
77056;SHT30;67471;44.918;8.614;2024-03-22T07:41:45;12.94;80.90
77056;SHT30;67471;44.918;8.614;2024-03-22T07:44:49;13.04;80.54
77056;SHT30;67471;44.918;8.614;2024-03-22T07:47:53;13.01;80.62
77056;SHT30;67471;44.918;8.614;2024-03-22T07:51:00;13.17;80.08
77056;SHT30;67471;44.918;8.614;2024-03-22T07:54:04;13.17;80.30
77056;SHT30;67471;44.918;8.614;2024-03-22T07:57:08;13.11;80.64
77056;SHT30;67471;44.918;8.614;2024-03-22T08:00:14;13.12;80.88
77056;SHT30;67471;44.918;8.614;2024-03-22T08:03:18;13.17;80.95
77056;SHT30;67471;44.918;8.614;2024-03-22T08:06:21;13.03;80.80
77056;SHT30;67471;44.918;8.614;2024-03-22T08:09:25;13.12;80.89
77056;SHT30;67471;44.918;8.614;2024-03-22T08:12:29;13.35;80.46
77056;SHT30;67471;44.918;8.614;2024-03-22T08:15:33;13.31;80.39
77056;SHT30;67471;44.918;8.614;2024-03-22T08:18:37;13.41;79.97
77056;SHT30;67471;44.918;8.614;2024-03-22T08:21:41;13.37;80.05
77056;SHT30;67471;44.918;8.614;2024-03-22T08:24:45;13.41;80.21
77056;SHT30;67471;44.918;8.614;2024-03-22T08:27:49;13.18;80.87
77056;SHT30;67471;44.918;8.614;2024-03-22T08:30:52;13.24;80.80
77056;SHT30;67471;44.918;8.614;2024-03-22T08:33:56;13.07;81.65
77056;SHT30;67471;44.918;8.614;2024-03-22T08:37:00;13.14;81.57
77056;SHT30;67471;44.918;8.614;2024-03-22T08:40:04;13.18;81.37
77056;SHT30;67471;44.918;8.614;2024-03-22T08:43:08;13.14;81.26
77056;SHT30;67471;44.918;8.614;2024-03-22T08:46:12;13.11;81.65
77056;SHT30;67471;44.918;8.614;2024-03-22T08:49:16;13.30;81.23
77056;SHT30;67471;44.918;8.614;2024-03-22T08:52:22;13.24;80.99
77056;SHT30;67471;44.918;8.614;2024-03-22T08:55:27;13.35;80.72
77056;SHT30;67471;44.918;8.614;2024-03-22T08:58:31;13.34;80.88
77056;SHT30;67471;44.918;8.614;2024-03-22T09:01:35;13.22;80.96
77056;SHT30;67471;44.918;8.614;2024-03-22T09:04:39;13.30;81.26
77056;SHT30;67471;44.918;8.614;2024-03-22T09:07:42;13.45;80.87
77056;SHT30;67471;44.918;8.614;2024-03-22T09:10:46;13.62;80.41
77056;SHT30;67471;44.918;8.614;2024-03-22T09:13:53;13.52;80.71
77056;SHT30;67471;44.918;8.614;2024-03-22T09:16:57;13.66;80.10
77056;SHT30;67471;44.918;8.614;2024-03-22T09:20:00;13.82;80.03
77056;SHT30;67471;44.918;8.614;2024-03-22T09:23:04;13.69;79.95
77056;SHT30;67471;44.918;8.614;2024-03-22T09:26:08;13.87;79.82
77056;SHT30;67471;44.918;8.614;2024-03-22T09:29:15;14.06;79.21
77056;SHT30;67471;44.918;8.614;2024-03-22T09:32:19;14.10;79.22
77056;SHT30;67471;44.918;8.614;2024-03-22T09:35:23;14.27;78.61
77056;SHT30;67471;44.918;8.614;2024-03-22T09:38:27;14.38;78.06
77056;SHT30;67471;44.918;8.614;2024-03-22T09:41:32;14.38;78.01
77056;SHT30;67471;44.918;8.614;2024-03-22T09:44:37;14.27;78.77
77056;SHT30;67471;44.918;8.614;2024-03-22T09:47:44;14.48;78.07
77056;SHT30;67471;44.918;8.614;2024-03-22T09:50:49;14.54;77.86
77056;SHT30;67471;44.918;8.614;2024-03-22T09:53:53;14.56;77.94
77056;SHT30;67471;44.918;8.614;2024-03-22T09:56:58;14.65;77.29
77056;SHT30;67471;44.918;8.614;2024-03-22T10:00:06;14.78;77.10
77056;SHT30;67471;44.918;8.614;2024-03-22T10:03:15;14.84;77.13
77056;SHT30;67471;44.918;8.614;2024-03-22T10:06:19;14.75;77.65
77056;SHT30;67471;44.918;8.614;2024-03-22T10:09:29;14.51;78.65
77056;SHT30;67471;44.918;8.614;2024-03-22T10:12:33;14.96;77.30
77056;SHT30;67471;44.918;8.614;2024-03-22T10:15:37;15.12;76.57
77056;SHT30;67471;44.918;8.614;2024-03-22T10:18:41;15.06;76.89
77056;SHT30;67471;44.918;8.614;2024-03-22T10:21:45;15.32;76.21
77056;SHT30;67471;44.918;8.614;2024-03-22T10:24:49;15.32;76.00
77056;SHT30;67471;44.918;8.614;2024-03-22T10:27:56;15.42;75.99
77056;SHT30;67471;44.918;8.614;2024-03-22T10:31:00;15.50;75.51
77056;SHT30;67471;44.918;8.614;2024-03-22T10:34:04;15.51;75.43
77056;SHT30;67471;44.918;8.614;2024-03-22T10:37:11;15.51;75.56
77056;SHT30;67471;44.918;8.614;2024-03-22T10:40:16;15.54;75.65
77056;SHT30;67471;44.918;8.614;2024-03-22T10:43:21;15.67;75.00
77056;SHT30;67471;44.918;8.614;2024-03-22T10:46:29;15.74;74.88
77056;SHT30;67471;44.918;8.614;2024-03-22T10:49:36;15.77;74.95
77056;SHT30;67471;44.918;8.614;2024-03-22T10:52:50;15.76;75.10
77056;SHT30;67471;44.918;8.614;2024-03-22T10:55:56;15.67;74.89
77056;SHT30;67471;44.918;8.614;2024-03-22T10:59:03;15.80;74.70
77056;SHT30;67471;44.918;8.614;2024-03-22T11:02:10;15.97;74.43
77056;SHT30;67471;44.918;8.614;2024-03-22T11:05:17;16.19;73.57
77056;SHT30;67471;44.918;8.614;2024-03-22T11:08:28;16.17;73.72
77056;SHT30;67471;44.918;8.614;2024-03-22T11:11:32;16.22;73.46
77056;SHT30;67471;44.918;8.614;2024-03-22T11:14:40;16.28;73.21
77056;SHT30;67471;44.918;8.614;2024-03-22T11:17:44;16.39;73.06
77056;SHT30;67471;44.918;8.614;2024-03-22T11:20:47;16.65;72.53
77056;SHT30;67471;44.918;8.614;2024-03-22T11:23:52;16.76;71.86
77056;SHT30;67471;44.918;8.614;2024-03-22T11:26:56;17.03;70.92
77056;SHT30;67471;44.918;8.614;2024-03-22T11:29:59;17.14;70.74
77056;SHT30;67471;44.918;8.614;2024-03-22T11:33:07;17.42;69.79
77056;SHT30;67471;44.918;8.614;2024-03-22T11:36:11;17.37;69.61
77056;SHT30;67471;44.918;8.614;2024-03-22T11:39:15;17.75;68.63
77056;SHT30;67471;44.918;8.614;2024-03-22T11:42:19;18.17;67.44
77056;SHT30;67471;44.918;8.614;2024-03-22T11:45:23;18.40;66.67
77056;SHT30;67471;44.918;8.614;2024-03-22T11:48:28;18.47;66.44
77056;SHT30;67471;44.918;8.614;2024-03-22T11:51:31;18.58;65.86
77056;SHT30;67471;44.918;8.614;2024-03-22T11:54:35;18.63;65.63
77056;SHT30;67471;44.918;8.614;2024-03-22T11:57:39;18.46;66.76
77056;SHT30;67471;44.918;8.614;2024-03-22T12:00:43;17.99;68.38
77056;SHT30;67471;44.918;8.614;2024-03-22T12:03:47;18.14;68.01
77056;SHT30;67471;44.918;8.614;2024-03-22T12:06:51;18.50;67.16
77056;SHT30;67471;44.918;8.614;2024-03-22T12:09:56;19.08;65.21
77056;SHT30;67471;44.918;8.614;2024-03-22T12:13:00;19.04;65.47
77056;SHT30;67471;44.918;8.614;2024-03-22T12:16:04;19.18;64.59
77056;SHT30;67471;44.918;8.614;2024-03-22T12:19:08;19.23;64.28
77056;SHT30;67471;44.918;8.614;2024-03-22T12:22:12;19.49;63.85
77056;SHT30;67471;44.918;8.614;2024-03-22T12:25:16;18.57;66.73
77056;SHT30;67471;44.918;8.614;2024-03-22T12:28:22;18.92;65.80
77056;SHT30;67471;44.918;8.614;2024-03-22T12:31:26;18.92;66.24
77056;SHT30;67471;44.918;8.614;2024-03-22T12:34:30;19.26;65.38
77056;SHT30;67471;44.918;8.614;2024-03-22T12:37:36;19.30;65.14
77056;SHT30;67471;44.918;8.614;2024-03-22T12:40:40;18.98;66.78
77056;SHT30;67471;44.918;8.614;2024-03-22T12:43:44;17.71;70.04
77056;SHT30;67471;44.918;8.614;2024-03-22T12:46:47;18.29;68.26
77056;SHT30;67471;44.918;8.614;2024-03-22T12:49:52;18.87;66.49
77056;SHT30;67471;44.918;8.614;2024-03-22T12:52:56;19.36;65.12
77056;SHT30;67471;44.918;8.614;2024-03-22T12:55:59;19.15;65.46
77056;SHT30;67471;44.918;8.614;2024-03-22T12:59:03;19.49;64.07
77056;SHT30;67471;44.918;8.614;2024-03-22T13:02:08;19.87;62.70
77056;SHT30;67471;44.918;8.614;2024-03-22T13:05:12;20.04;62.02
77056;SHT30;67471;44.918;8.614;2024-03-22T13:08:15;19.88;61.97
77056;SHT30;67471;44.918;8.614;2024-03-22T13:11:20;19.58;63.03
77056;SHT30;67471;44.918;8.614;2024-03-22T13:14:24;20.13;61.66
77056;SHT30;67471;44.918;8.614;2024-03-22T13:17:28;20.22;61.38
77056;SHT30;67471;44.918;8.614;2024-03-22T13:20:34;20.51;59.89
77056;SHT30;67471;44.918;8.614;2024-03-22T13:23:38;20.17;59.95
77056;SHT30;67471;44.918;8.614;2024-03-22T13:26:41;20.14;60.32
77056;SHT30;67471;44.918;8.614;2024-03-22T13:29:45;20.72;59.24
77056;SHT30;67471;44.918;8.614;2024-03-22T13:32:50;20.89;59.21
77056;SHT30;67471;44.918;8.614;2024-03-22T13:35:54;21.17;58.95
77056;SHT30;67471;44.918;8.614;2024-03-22T13:38:58;21.03;59.10
77056;SHT30;67471;44.918;8.614;2024-03-22T13:42:01;21.30;58.79
77056;SHT30;67471;44.918;8.614;2024-03-22T13:45:05;21.34;58.51
77056;SHT30;67471;44.918;8.614;2024-03-22T13:48:11;21.40;58.62
77056;SHT30;67471;44.918;8.614;2024-03-22T13:51:15;21.24;59.28
77056;SHT30;67471;44.918;8.614;2024-03-22T13:54:19;21.26;59.39
77056;SHT30;67471;44.918;8.614;2024-03-22T13:57:22;21.27;58.99
77056;SHT30;67471;44.918;8.614;2024-03-22T14:00:28;21.40;59.46
77056;SHT30;67471;44.918;8.614;2024-03-22T14:03:32;21.41;59.43
77056;SHT30;67471;44.918;8.614;2024-03-22T14:06:37;21.37;59.31
77056;SHT30;67471;44.918;8.614;2024-03-22T14:09:41;21.07;59.50
77056;SHT30;67471;44.918;8.614;2024-03-22T14:12:46;21.46;58.69
77056;SHT30;67471;44.918;8.614;2024-03-22T14:15:50;21.33;59.49
77056;SHT30;67471;44.918;8.614;2024-03-22T14:18:54;21.28;59.82
77056;SHT30;67471;44.918;8.614;2024-03-22T14:21:58;21.03;61.89
77056;SHT30;67471;44.918;8.614;2024-03-22T14:25:02;21.28;61.44
77056;SHT30;67471;44.918;8.614;2024-03-22T14:28:06;21.11;60.78
77056;SHT30;67471;44.918;8.614;2024-03-22T14:31:10;20.48;62.93
77056;SHT30;67471;44.918;8.614;2024-03-22T14:34:14;20.89;61.98
77056;SHT30;67471;44.918;8.614;2024-03-22T14:37:18;20.92;61.66
77056;SHT30;67471;44.918;8.614;2024-03-22T14:40:22;20.89;61.48
77056;SHT30;67471;44.918;8.614;2024-03-22T14:43:26;20.79;62.30
77056;SHT30;67471;44.918;8.614;2024-03-22T14:46:31;20.48;63.26
77056;SHT30;67471;44.918;8.614;2024-03-22T14:49:35;20.16;65.01
77056;SHT30;67471;44.918;8.614;2024-03-22T14:52:39;20.52;64.41
77056;SHT30;67471;44.918;8.614;2024-03-22T14:55:53;20.24;64.74
77056;SHT30;67471;44.918;8.614;2024-03-22T14:58:57;20.32;65.36
77056;SHT30;67471;44.918;8.614;2024-03-22T15:02:03;20.27;65.73
77056;SHT30;67471;44.918;8.614;2024-03-22T15:05:07;20.38;64.62
77056;SHT30;67471;44.918;8.614;2024-03-22T15:08:11;20.35;65.14
77056;SHT30;67471;44.918;8.614;2024-03-22T15:11:15;20.17;66.11
77056;SHT30;67471;44.918;8.614;2024-03-22T15:14:20;20.07;66.02
77056;SHT30;67471;44.918;8.614;2024-03-22T15:17:25;20.01;67.14
77056;SHT30;67471;44.918;8.614;2024-03-22T15:20:28;19.97;67.49
77056;SHT30;67471;44.918;8.614;2024-03-22T15:23:32;19.80;68.09
77056;SHT30;67471;44.918;8.614;2024-03-22T15:26:36;19.83;67.86
77056;SHT30;67471;44.918;8.614;2024-03-22T15:29:40;19.26;70.06
77056;SHT30;67471;44.918;8.614;2024-03-22T15:32:45;19.29;69.82
77056;SHT30;67471;44.918;8.614;2024-03-22T15:35:49;19.42;69.15
77056;SHT30;67471;44.918;8.614;2024-03-22T15:38:54;19.28;69.27
77056;SHT30;67471;44.918;8.614;2024-03-22T15:41:58;19.01;70.37
77056;SHT30;67471;44.918;8.614;2024-03-22T15:45:03;19.12;69.82
77056;SHT30;67471;44.918;8.614;2024-03-22T15:48:09;18.91;70.25
77056;SHT30;67471;44.918;8.614;2024-03-22T15:51:13;18.71;70.86
77056;SHT30;67471;44.918;8.614;2024-03-22T15:54:17;18.83;70.52
77056;SHT30;67471;44.918;8.614;2024-03-22T15:57:21;18.83;70.52
77056;SHT30;67471;44.918;8.614;2024-03-22T16:00:25;18.92;70.21
77056;SHT30;67471;44.918;8.614;2024-03-22T16:03:29;18.97;69.79
77056;SHT30;67471;44.918;8.614;2024-03-22T16:06:35;18.94;69.90
77056;SHT30;67471;44.918;8.614;2024-03-22T16:09:38;18.85;69.87
77056;SHT30;67471;44.918;8.614;2024-03-22T16:12:42;19.11;69.45
77056;SHT30;67471;44.918;8.614;2024-03-22T16:15:46;18.95;69.74
77056;SHT30;67471;44.918;8.614;2024-03-22T16:18:50;18.77;70.36
77056;SHT30;67471;44.918;8.614;2024-03-22T16:21:54;18.68;70.98
77056;SHT30;67471;44.918;8.614;2024-03-22T16:24:58;18.46;71.67
77056;SHT30;67471;44.918;8.614;2024-03-22T16:31:24;18.54;71.24
77056;SHT30;67471;44.918;8.614;2024-03-22T16:34:28;18.33;71.54
77056;SHT30;67471;44.918;8.614;2024-03-22T16:37:31;18.44;71.30
77056;SHT30;67471;44.918;8.614;2024-03-22T16:40:35;18.43;71.11
77056;SHT30;67471;44.918;8.614;2024-03-22T16:43:40;18.44;71.07
77056;SHT30;67471;44.918;8.614;2024-03-22T16:46:44;18.56;70.98
77056;SHT30;67471;44.918;8.614;2024-03-22T16:49:47;18.44;71.24
77056;SHT30;67471;44.918;8.614;2024-03-22T16:52:51;18.19;71.90
77056;SHT30;67471;44.918;8.614;2024-03-22T16:55:55;18.30;71.52
77056;SHT30;67471;44.918;8.614;2024-03-22T16:59:00;18.25;71.87
77056;SHT30;67471;44.918;8.614;2024-03-22T17:02:03;18.26;71.77
77056;SHT30;67471;44.918;8.614;2024-03-22T17:05:07;18.14;71.77
77056;SHT30;67471;44.918;8.614;2024-03-22T17:08:13;18.08;72.05
77056;SHT30;67471;44.918;8.614;2024-03-22T17:11:17;17.96;72.59
77056;SHT30;67471;44.918;8.614;2024-03-22T17:14:20;17.90;72.87
77056;SHT30;67471;44.918;8.614;2024-03-22T17:17:24;17.92;72.91
77056;SHT30;67471;44.918;8.614;2024-03-22T17:20:28;17.86;72.84
77056;SHT30;67471;44.918;8.614;2024-03-22T17:23:33;17.86;72.88
77056;SHT30;67471;44.918;8.614;2024-03-22T17:26:37;17.82;72.75
77056;SHT30;67471;44.918;8.614;2024-03-22T17:29:43;17.79;72.77
77056;SHT30;67471;44.918;8.614;2024-03-22T17:32:47;17.83;72.81
77056;SHT30;67471;44.918;8.614;2024-03-22T17:35:51;17.75;73.00
77056;SHT30;67471;44.918;8.614;2024-03-22T17:38:56;17.86;72.31
77056;SHT30;67471;44.918;8.614;2024-03-22T17:42:00;17.96;71.95
77056;SHT30;67471;44.918;8.614;2024-03-22T17:45:06;17.81;72.65
77056;SHT30;67471;44.918;8.614;2024-03-22T17:48:09;17.71;72.96
77056;SHT30;67471;44.918;8.614;2024-03-22T17:51:14;17.64;73.22
77056;SHT30;67471;44.918;8.614;2024-03-22T17:54:17;17.59;73.19
77056;SHT30;67471;44.918;8.614;2024-03-22T17:57:21;17.62;73.13
77056;SHT30;67471;44.918;8.614;2024-03-22T18:00:26;17.30;74.32
77056;SHT30;67471;44.918;8.614;2024-03-22T18:03:32;17.47;73.69
77056;SHT30;67471;44.918;8.614;2024-03-22T18:06:36;17.31;74.35
77056;SHT30;67471;44.918;8.614;2024-03-22T18:09:40;17.50;73.61
77056;SHT30;67471;44.918;8.614;2024-03-22T18:12:44;17.35;73.91
77056;SHT30;67471;44.918;8.614;2024-03-22T18:15:48;17.19;74.74
77056;SHT30;67471;44.918;8.614;2024-03-22T18:18:51;16.89;76.15
77056;SHT30;67471;44.918;8.614;2024-03-22T18:21:55;16.94;76.01
77056;SHT30;67471;44.918;8.614;2024-03-22T18:25:00;16.75;76.86
77056;SHT30;67471;44.918;8.614;2024-03-22T18:28:04;16.86;76.47
77056;SHT30;67471;44.918;8.614;2024-03-22T18:31:08;16.83;76.24
77056;SHT30;67471;44.918;8.614;2024-03-22T18:34:12;16.91;76.06
77056;SHT30;67471;44.918;8.614;2024-03-22T18:37:16;16.81;75.74
77056;SHT30;67471;44.918;8.614;2024-03-22T18:40:22;16.63;76.69
77056;SHT30;67471;44.918;8.614;2024-03-22T18:43:26;16.65;76.36
77056;SHT30;67471;44.918;8.614;2024-03-22T18:46:32;16.75;76.00
77056;SHT30;67471;44.918;8.614;2024-03-22T18:49:37;16.73;75.97
77056;SHT30;67471;44.918;8.614;2024-03-22T18:52:40;16.93;75.41
77056;SHT30;67471;44.918;8.614;2024-03-22T18:55:44;16.48;77.25
77056;SHT30;67471;44.918;8.614;2024-03-22T18:58:49;16.41;77.52
77056;SHT30;67471;44.918;8.614;2024-03-22T19:01:53;16.47;77.38
77056;SHT30;67471;44.918;8.614;2024-03-22T19:04:57;16.49;77.04
77056;SHT30;67471;44.918;8.614;2024-03-22T19:08:00;16.39;77.44
77056;SHT30;67471;44.918;8.614;2024-03-22T19:11:06;16.52;76.63
77056;SHT30;67471;44.918;8.614;2024-03-22T19:14:10;16.39;77.34
77056;SHT30;67471;44.918;8.614;2024-03-22T19:17:14;16.42;77.51
77056;SHT30;67471;44.918;8.614;2024-03-22T19:20:19;16.52;77.17
77056;SHT30;67471;44.918;8.614;2024-03-22T19:23:23;16.66;76.38
77056;SHT30;67471;44.918;8.614;2024-03-22T19:26:27;16.77;76.11